createdAt,value
2018-10-06T00:01:27.676Z,7.57
2018-10-06T00:03:56.193Z,6.60
2018-10-06T00:06:24.784Z,5.83
2018-10-06T00:08:53.309Z,7.47
2018-10-06T00:11:21.883Z,6.90
2018-10-06T00:13:50.407Z,6.77
2018-10-06T00:16:18.940Z,6.07
2018-10-06T00:18:47.451Z,5.20
2018-10-06T00:21:15.995Z,10.47
2018-10-06T00:23:44.516Z,5.80
2018-10-06T00:26:13.068Z,6.20
2018-10-06T00:28:41.571Z,6.40
2018-10-06T00:31:10.079Z,5.70
2018-10-06T00:33:38.636Z,7.57
2018-10-06T00:36:07.261Z,8.57
2018-10-06T00:38:35.884Z,8.67
2018-10-06T00:41:07.429Z,6.50
2018-10-06T00:43:35.985Z,6.00
2018-10-06T00:46:04.508Z,5.47
2018-10-06T00:48:33.060Z,6.17
2018-10-06T00:51:01.604Z,5.63
2018-10-06T00:53:30.167Z,5.27
2018-10-06T00:55:58.684Z,7.70
2018-10-06T00:58:27.256Z,5.47
2018-10-06T01:00:55.787Z,5.70
2018-10-06T01:03:24.337Z,6.60
2018-10-06T01:05:52.915Z,10.37
2018-10-06T01:08:21.469Z,6.67
2018-10-06T01:10:50.284Z,7.77
2018-10-06T01:13:18.844Z,6.80
2018-10-06T01:15:47.364Z,7.03
2018-10-06T01:18:15.939Z,5.87
2018-10-06T01:20:44.478Z,9.00
2018-10-06T01:23:13.019Z,7.70
2018-10-06T01:25:41.555Z,6.27
2018-10-06T01:28:10.112Z,8.77
2018-10-06T01:30:38.628Z,6.30
2018-10-06T01:33:07.184Z,6.40
2018-10-06T01:35:35.721Z,7.13
2018-10-06T01:38:04.271Z,8.27
2018-10-06T01:40:32.793Z,8.40
2018-10-06T01:43:01.355Z,8.20
2018-10-06T01:45:29.869Z,7.47
2018-10-06T01:47:58.451Z,7.00
2018-10-06T01:50:26.955Z,7.87
2018-10-06T01:52:55.498Z,8.70
2018-10-06T01:55:24.019Z,9.83
2018-10-06T01:57:52.575Z,6.50
2018-10-06T02:00:21.099Z,6.33
2018-10-06T02:02:49.650Z,8.03
2018-10-06T02:05:18.176Z,7.83
2018-10-06T02:07:46.721Z,8.50
2018-10-06T02:10:15.340Z,7.60
2018-10-06T02:12:43.892Z,13.23
2018-10-06T02:15:12.405Z,10.40
2018-10-06T02:17:40.948Z,13.47
2018-10-06T02:20:09.828Z,9.93
2018-10-06T02:22:38.372Z,11.90
2018-10-06T02:25:07.103Z,11.53
2018-10-06T02:27:35.675Z,10.47
2018-10-06T02:30:04.289Z,9.33
2018-10-06T02:32:32.840Z,10.10
2018-10-06T02:35:01.374Z,11.30
2018-10-06T02:37:30.128Z,9.03
2018-10-06T02:39:58.684Z,9.67
2018-10-06T02:42:27.328Z,8.83
2018-10-06T02:44:55.897Z,11.27
2018-10-06T02:47:24.419Z,8.47
2018-10-06T02:49:52.984Z,8.43
2018-10-06T02:52:21.500Z,7.93
2018-10-06T02:54:50.052Z,6.63
2018-10-06T02:57:18.564Z,7.63
2018-10-06T02:59:47.127Z,7.70
2018-10-06T03:02:15.647Z,7.83
2018-10-06T03:04:44.200Z,6.47
2018-10-06T03:07:12.730Z,9.13
2018-10-06T03:09:41.288Z,7.53
2018-10-06T03:12:09.817Z,9.30
2018-10-06T03:14:38.460Z,9.00
2018-10-06T03:17:07.259Z,6.97
2018-10-06T03:19:35.812Z,12.17
2018-10-06T03:22:04.361Z,6.17
2018-10-06T03:24:32.934Z,6.53
2018-10-06T03:27:01.460Z,7.97
2018-10-06T03:29:30.021Z,6.63
2018-10-06T03:31:58.549Z,6.30
2018-10-06T03:34:27.096Z,5.77
2018-10-06T03:36:55.608Z,8.30
2018-10-06T03:39:24.164Z,7.77
2018-10-06T03:41:52.701Z,6.67
2018-10-06T03:44:21.250Z,11.07
2018-10-06T03:46:49.776Z,11.47
2018-10-06T03:49:18.321Z,8.23
2018-10-06T03:51:47.178Z,6.30
2018-10-06T03:54:15.791Z,14.13
2018-10-06T03:56:44.520Z,12.13
2018-10-06T03:59:13.887Z,13.93
2018-10-06T04:01:42.585Z,14.87
2018-10-06T04:04:11.147Z,14.43
2018-10-06T04:06:39.713Z,19.13
2018-10-06T04:09:08.907Z,14.57
2018-10-06T04:11:37.545Z,13.50
2018-10-06T04:14:06.667Z,17.70
2018-10-06T04:16:35.206Z,12.70
2018-10-06T04:19:03.764Z,13.30
2018-10-06T04:21:39.488Z,14.10
2018-10-06T04:24:08.900Z,13.20
2018-10-06T04:26:37.420Z,11.83
2018-10-06T04:29:05.992Z,11.23
2018-10-06T04:31:34.524Z,14.43
2018-10-06T04:34:03.079Z,9.23
2018-10-06T04:36:31.686Z,10.67
2018-10-06T04:39:00.266Z,14.00
2018-10-06T04:41:29.353Z,12.40
2018-10-06T04:43:57.903Z,12.97
2018-10-06T04:46:26.456Z,10.50
2018-10-06T04:48:55.009Z,10.27
2018-10-06T04:51:23.528Z,8.17
2018-10-06T04:53:52.076Z,11.93
2018-10-06T04:56:20.651Z,8.80
2018-10-06T04:58:49.168Z,8.80
2018-10-06T05:01:17.720Z,11.33
2018-10-06T05:03:46.236Z,9.77
2018-10-06T05:06:14.812Z,7.63
2018-10-06T05:08:43.344Z,11.37
2018-10-06T05:11:11.898Z,9.20
2018-10-06T05:13:40.448Z,10.80
2018-10-06T05:16:09.004Z,13.50
2018-10-06T05:18:37.527Z,12.10
2018-10-06T05:21:06.223Z,14.97
2018-10-06T05:23:34.883Z,17.17
2018-10-06T05:26:03.333Z,21.03
2018-10-06T05:28:31.990Z,21.73
2018-10-06T05:31:00.536Z,22.57
2018-10-06T05:33:29.072Z,22.43
2018-10-06T05:35:57.653Z,15.90
2018-10-06T05:38:26.163Z,17.23
2018-10-06T05:40:54.744Z,13.73
2018-10-06T05:43:23.276Z,11.77
2018-10-06T05:45:51.831Z,16.47
2018-10-06T05:48:20.360Z,16.73
2018-10-06T05:50:48.911Z,16.73
2018-10-06T05:53:17.445Z,19.40
2018-10-06T05:55:46.012Z,16.07
2018-10-06T05:58:14.531Z,12.83
2018-10-06T06:00:43.084Z,10.27
2018-10-06T06:03:11.621Z,10.63
2018-10-06T06:05:40.240Z,10.47
2018-10-06T06:08:08.755Z,9.13
2018-10-06T06:10:37.300Z,10.87
2018-10-06T06:13:05.822Z,11.43
2018-10-06T06:15:34.451Z,12.60
2018-10-06T06:18:02.950Z,13.37
2018-10-06T06:20:31.504Z,12.10
2018-10-06T06:23:00.021Z,12.97
2018-10-06T06:25:28.561Z,12.77
2018-10-06T06:27:57.084Z,14.10
2018-10-06T06:30:25.635Z,19.30
2018-10-06T06:32:54.169Z,15.67
2018-10-06T06:35:22.720Z,20.37
2018-10-06T06:37:51.249Z,19.00
2018-10-06T06:40:19.813Z,17.17
2018-10-06T06:42:48.340Z,14.43
2018-10-06T06:45:16.890Z,16.27
2018-10-06T06:47:45.404Z,13.90
2018-10-06T06:50:13.952Z,13.27
2018-10-06T06:52:42.484Z,15.03
2018-10-06T06:55:11.029Z,13.13
2018-10-06T06:57:39.608Z,15.47
2018-10-06T07:00:08.256Z,12.03
2018-10-06T07:02:36.800Z,12.13
2018-10-06T07:05:05.366Z,12.70
2018-10-06T07:07:33.933Z,18.87
2018-10-06T07:10:02.462Z,18.23
2018-10-06T07:12:31.080Z,13.37
2018-10-06T07:14:59.593Z,10.87
2018-10-06T07:17:28.147Z,10.60
2018-10-06T07:19:56.675Z,10.00
2018-10-06T07:22:25.231Z,10.60
2018-10-06T07:24:53.756Z,10.10
2018-10-06T07:27:22.328Z,11.23
2018-10-06T07:29:50.841Z,11.73
2018-10-06T07:32:19.397Z,10.70
2018-10-06T07:34:47.963Z,12.27
2018-10-06T07:37:16.513Z,12.20
2018-10-06T07:39:45.044Z,12.33
2018-10-06T07:42:13.596Z,9.30
2018-10-06T07:44:42.140Z,9.63
2018-10-06T07:47:10.697Z,7.67
2018-10-06T07:49:39.219Z,7.53
2018-10-06T07:52:07.763Z,7.10
2018-10-06T07:54:36.283Z,6.33
2018-10-06T07:57:04.876Z,6.87
2018-10-06T07:59:33.391Z,6.93
2018-10-06T08:02:01.951Z,7.47
2018-10-06T08:04:30.477Z,6.67
2018-10-06T08:06:59.036Z,7.43
2018-10-06T08:09:27.556Z,7.60
2018-10-06T08:11:56.104Z,8.17
2018-10-06T08:14:24.655Z,8.00
2018-10-06T08:16:53.196Z,9.53
2018-10-06T08:19:21.720Z,8.30
2018-10-06T08:21:50.265Z,7.43
2018-10-06T08:24:18.803Z,7.57
2018-10-06T08:26:47.357Z,8.10
2018-10-06T08:29:15.884Z,8.27
2018-10-06T08:31:44.432Z,7.80
2018-10-06T08:34:12.972Z,9.93
2018-10-06T08:36:41.539Z,7.17
2018-10-06T08:39:10.327Z,9.03
2018-10-06T08:41:38.932Z,9.20
2018-10-06T08:44:07.448Z,7.20
2018-10-06T08:46:36.032Z,11.50
2018-10-06T08:49:04.767Z,8.57
2018-10-06T08:51:33.304Z,7.77
2018-10-06T08:54:01.811Z,8.23
2018-10-06T08:56:30.423Z,8.93
2018-10-06T08:58:58.920Z,10.83
2018-10-06T09:01:27.477Z,7.60
2018-10-06T09:03:56.004Z,9.70
2018-10-06T09:06:24.576Z,8.80
2018-10-06T09:08:53.108Z,7.77
2018-10-06T09:11:21.674Z,7.63
2018-10-06T09:13:50.226Z,12.30
2018-10-06T09:16:18.804Z,6.33
2018-10-06T09:18:47.373Z,7.17
2018-10-06T09:21:15.915Z,10.43
2018-10-06T09:23:44.471Z,8.50
2018-10-06T09:26:12.996Z,35.93
2018-10-06T09:28:41.563Z,14.53
2018-10-06T09:31:10.080Z,9.27
2018-10-06T09:33:38.627Z,8.33
2018-10-06T09:36:07.255Z,8.50
2018-10-06T09:38:35.804Z,12.40
2018-10-06T09:41:04.325Z,7.23
2018-10-06T09:43:32.882Z,9.17
2018-10-06T09:46:01.412Z,9.60
2018-10-06T09:48:29.956Z,9.67
2018-10-06T09:50:58.496Z,8.90
2018-10-06T09:53:27.048Z,7.30
2018-10-06T09:55:55.575Z,7.47
2018-10-06T09:58:24.164Z,10.03
2018-10-06T10:00:57.965Z,6.90
2018-10-06T10:03:31.761Z,6.87
2018-10-06T10:06:00.354Z,7.77
2018-10-06T10:08:28.915Z,7.63
2018-10-06T10:10:57.435Z,7.70
2018-10-06T10:13:25.984Z,8.70
2018-10-06T10:15:54.512Z,7.30
2018-10-06T10:18:23.170Z,9.03
2018-10-06T10:20:51.655Z,5.13
2018-10-06T10:23:20.231Z,6.23
2018-10-06T10:25:48.751Z,5.07
2018-10-06T10:28:17.331Z,6.83
2018-10-06T10:30:45.848Z,7.37
2018-10-06T10:33:14.404Z,11.60
2018-10-06T10:35:42.952Z,6.90
2018-10-06T10:38:11.512Z,6.07
2018-10-06T10:40:40.048Z,5.80
2018-10-06T10:43:08.605Z,9.87
2018-10-06T10:45:37.124Z,7.70
2018-10-06T10:48:05.816Z,6.37
2018-10-06T10:50:34.415Z,9.53
2018-10-06T10:53:02.921Z,6.27
2018-10-06T10:55:31.509Z,8.13
2018-10-06T10:58:00.049Z,6.90
2018-10-06T11:00:28.645Z,6.50
2018-10-06T11:02:57.144Z,5.83
2018-10-06T11:05:25.683Z,4.77
2018-10-06T11:07:54.244Z,7.13
2018-10-06T11:10:22.769Z,11.73
2018-10-06T11:12:51.315Z,5.93
2018-10-06T11:15:19.825Z,6.93
2018-10-06T11:17:48.386Z,6.17
2018-10-06T11:20:16.920Z,11.17
2018-10-06T11:22:45.484Z,7.23
2018-10-06T11:25:20.420Z,5.93
2018-10-06T11:27:48.974Z,7.73
2018-10-06T11:30:17.489Z,5.83
2018-10-06T11:32:46.064Z,3.93
2018-10-06T11:35:14.597Z,7.83
2018-10-06T11:37:43.280Z,6.73
2018-10-06T11:40:11.689Z,6.20
2018-10-06T11:42:40.253Z,8.53
2018-10-06T11:45:08.785Z,5.10
2018-10-06T11:47:37.342Z,5.33
2018-10-06T11:50:06.011Z,7.63
2018-10-06T11:52:34.541Z,5.10
2018-10-06T11:55:03.095Z,3.60
2018-10-06T11:57:31.679Z,4.93
2018-10-06T12:00:00.281Z,3.87
2018-10-06T12:02:28.801Z,5.17
2018-10-06T12:04:57.343Z,4.67
2018-10-06T12:07:25.880Z,5.37
2018-10-06T12:09:54.431Z,3.47
2018-10-06T12:12:22.987Z,3.30
2018-10-06T12:14:51.525Z,4.37
2018-10-06T12:17:20.077Z,6.37
2018-10-06T12:19:48.591Z,3.87
2018-10-06T12:22:17.154Z,6.93
2018-10-06T12:24:45.717Z,4.60
2018-10-06T12:27:14.264Z,4.50
2018-10-06T12:29:42.795Z,4.30
2018-10-06T12:32:11.349Z,4.33
2018-10-06T12:34:40.022Z,2.83
2018-10-06T12:37:08.541Z,2.57
2018-10-06T12:39:37.097Z,4.43
2018-10-06T12:42:05.791Z,11.03
2018-10-06T12:44:34.300Z,2.70
2018-10-06T12:47:02.859Z,2.30
2018-10-06T12:49:31.531Z,4.00
2018-10-06T12:52:00.085Z,2.47
2018-10-06T12:54:28.655Z,5.10
2018-10-06T12:56:57.260Z,3.93
2018-10-06T12:59:25.799Z,3.87
2018-10-06T13:01:54.410Z,4.50
2018-10-06T13:04:22.933Z,3.90
2018-10-06T13:06:51.545Z,2.90
2018-10-06T13:09:20.079Z,8.27
2018-10-06T13:11:48.700Z,3.87
2018-10-06T13:14:17.231Z,4.50
2018-10-06T13:16:45.800Z,5.20
2018-10-06T13:19:14.393Z,3.07
2018-10-06T13:21:42.959Z,3.47
2018-10-06T13:24:11.505Z,3.60
2018-10-06T13:26:40.551Z,2.00
2018-10-06T13:29:09.477Z,9.43
2018-10-06T13:31:38.071Z,5.80
2018-10-06T13:34:07.104Z,3.40
2018-10-06T13:36:35.696Z,4.53
2018-10-06T13:39:05.570Z,5.10
2018-10-06T13:41:34.150Z,2.70
2018-10-06T13:44:02.753Z,4.50
2018-10-06T13:46:31.394Z,5.33
2018-10-06T13:48:59.935Z,4.73
2018-10-06T13:51:28.528Z,4.50
2018-10-06T13:53:57.127Z,3.90
2018-10-06T13:56:25.704Z,6.57
2018-10-06T13:58:54.268Z,5.60
2018-10-06T14:01:22.853Z,3.97
2018-10-06T14:03:51.425Z,2.60
2018-10-06T14:06:19.996Z,5.83
2018-10-06T14:08:48.601Z,5.40
2018-10-06T14:11:17.141Z,4.60
2018-10-06T14:13:45.704Z,3.73
2018-10-06T14:16:14.256Z,3.10
2018-10-06T14:18:42.832Z,4.63
2018-10-06T14:21:11.371Z,4.47
2018-10-06T14:23:39.923Z,3.73
2018-10-06T14:26:08.782Z,4.17
2018-10-06T14:28:37.408Z,5.60
2018-10-06T14:31:06.057Z,3.07
2018-10-06T14:33:34.623Z,4.57
2018-10-06T14:36:03.180Z,3.90
2018-10-06T14:38:31.767Z,5.17
2018-10-06T14:41:01.216Z,3.93
2018-10-06T14:43:29.876Z,4.73
2018-10-06T14:45:58.408Z,2.73
2018-10-06T14:48:26.968Z,3.63
2018-10-06T14:50:55.497Z,2.73
2018-10-06T14:53:24.235Z,3.50
2018-10-06T14:55:52.784Z,5.93
2018-10-06T14:58:21.384Z,7.93
2018-10-06T15:00:49.919Z,3.70
2018-10-06T15:03:18.504Z,7.23
2018-10-06T15:05:47.061Z,3.23
2018-10-06T15:08:15.655Z,5.40
2018-10-06T15:10:44.203Z,4.33
2018-10-06T15:13:12.756Z,5.47
2018-10-06T15:15:41.319Z,6.77
2018-10-06T15:18:09.883Z,2.60
2018-10-06T15:20:38.420Z,3.30
2018-10-06T15:23:07.042Z,3.53
2018-10-06T15:25:35.601Z,6.07
2018-10-06T15:28:04.275Z,5.27
2018-10-06T15:30:32.797Z,3.87
2018-10-06T15:33:01.403Z,5.47
2018-10-06T15:35:30.027Z,4.40
2018-10-06T15:37:58.672Z,4.80
2018-10-06T15:40:27.128Z,4.40
2018-10-06T15:42:55.719Z,4.53
2018-10-06T15:45:24.264Z,7.57
2018-10-06T15:47:52.841Z,4.87
2018-10-06T15:50:21.434Z,5.17
2018-10-06T15:52:50.016Z,2.93
2018-10-06T15:55:18.591Z,4.67
2018-10-06T15:57:47.144Z,4.13
2018-10-06T16:00:15.687Z,5.87
2018-10-06T16:02:44.276Z,4.70
2018-10-06T16:05:12.816Z,7.10
2018-10-06T16:07:41.382Z,7.03
2018-10-06T16:10:09.948Z,7.37
2018-10-06T16:12:38.475Z,5.27
2018-10-06T16:15:07.044Z,5.27
2018-10-06T16:17:35.626Z,7.20
2018-10-06T16:20:04.308Z,6.37
2018-10-06T16:22:32.837Z,8.07
2018-10-06T16:25:01.400Z,8.43
2018-10-06T16:27:30.011Z,4.30
2018-10-06T16:29:58.540Z,9.73
2018-10-06T16:32:27.055Z,8.47
2018-10-06T16:34:55.745Z,4.47
2018-10-06T16:37:24.343Z,7.03
2018-10-06T16:39:52.908Z,3.53
2018-10-06T16:42:21.441Z,10.47
2018-10-06T16:44:50.003Z,7.30
2018-10-06T16:47:19.072Z,16.20
2018-10-06T16:49:47.629Z,8.70
2018-10-06T16:52:16.664Z,7.53
2018-10-06T16:54:45.516Z,6.13
2018-10-06T16:57:14.577Z,4.03
2018-10-06T16:59:43.202Z,4.20
2018-10-06T17:02:11.847Z,7.70
2018-10-06T17:04:40.392Z,5.77
2018-10-06T17:07:08.965Z,4.93
2018-10-06T17:09:37.524Z,11.77
2018-10-06T17:12:06.092Z,6.60
2018-10-06T17:14:35.116Z,9.07
2018-10-06T17:17:03.664Z,4.80
2018-10-06T17:19:33.194Z,10.03
2018-10-06T17:22:01.760Z,11.80
2018-10-06T17:24:30.344Z,7.77
2018-10-06T17:26:59.897Z,4.07
2018-10-06T17:29:28.886Z,5.40
2018-10-06T17:31:57.453Z,7.33
2018-10-06T17:34:26.832Z,6.53
2018-10-06T17:36:55.524Z,5.63
2018-10-06T17:39:24.121Z,4.13
2018-10-06T17:41:53.575Z,5.83
2018-10-06T17:44:22.280Z,6.53
2018-10-06T17:46:50.796Z,4.57
2018-10-06T17:49:19.531Z,7.57
2018-10-06T17:51:48.139Z,5.10
2018-10-06T17:54:16.733Z,5.43
2018-10-06T17:56:45.284Z,6.67
2018-10-06T17:59:13.834Z,5.13
2018-10-06T18:03:01.644Z,8.13
2018-10-06T18:05:30.228Z,13.07
2018-10-06T18:07:58.820Z,5.97
2018-10-06T18:10:27.512Z,10.90
2018-10-06T18:12:58.273Z,8.60
2018-10-06T18:15:30.444Z,7.50
2018-10-06T18:17:59.619Z,5.77
2018-10-06T18:20:29.040Z,7.83
2018-10-06T18:22:57.408Z,5.80
2018-10-06T18:25:25.980Z,5.97
2018-10-06T18:27:54.499Z,6.53
2018-10-06T18:30:23.136Z,7.83
2018-10-06T18:32:51.716Z,8.67
2018-10-06T18:35:20.280Z,7.57
2018-10-06T18:37:49.075Z,7.37
2018-10-06T18:40:17.695Z,8.80
2018-10-06T18:42:46.397Z,6.90
2018-10-06T18:45:14.988Z,9.77
2018-10-06T18:47:43.559Z,7.83
2018-10-06T18:50:12.279Z,8.93
2018-10-06T18:52:40.805Z,5.13
2018-10-06T18:55:09.411Z,5.40
2018-10-06T18:57:38.013Z,4.63
2018-10-06T19:00:07.335Z,3.80
2018-10-06T19:02:35.876Z,7.33
2018-10-06T19:05:05.090Z,7.00
2018-10-06T19:07:33.681Z,8.33
2018-10-06T19:10:02.298Z,8.63
2018-10-06T19:12:30.882Z,7.70
2018-10-06T19:14:59.464Z,7.80
2018-10-06T19:17:28.029Z,6.30
2018-10-06T19:19:56.602Z,7.23
2018-10-06T19:22:25.524Z,5.57
2018-10-06T19:24:54.080Z,5.07
2018-10-06T19:27:22.672Z,10.60
2018-10-06T19:29:51.183Z,4.90
2018-10-06T19:32:19.764Z,5.83
2018-10-06T19:34:48.339Z,6.97
2018-10-06T19:37:16.983Z,7.73
2018-10-06T19:39:45.576Z,10.47
2018-10-06T19:42:14.151Z,7.53
2018-10-06T19:44:42.768Z,6.90
2018-10-06T19:47:11.937Z,7.47
2018-10-06T19:49:40.508Z,11.70
2018-10-06T19:52:09.132Z,10.30
2018-10-06T19:54:37.883Z,6.43
2018-10-06T19:57:06.689Z,5.63
2018-10-06T19:59:35.385Z,5.78
2018-10-06T20:02:03.936Z,6.17
2018-10-06T20:04:32.630Z,4.00
2018-10-06T20:07:01.268Z,5.23
2018-10-06T20:09:31.807Z,7.47
2018-10-06T20:12:00.389Z,6.53
2018-10-06T20:14:28.948Z,7.47
2018-10-06T20:16:58.672Z,8.00
2018-10-06T20:19:27.305Z,6.60
2018-10-06T20:21:55.903Z,6.93
2018-10-06T20:24:24.481Z,12.60
2018-10-06T20:26:53.110Z,7.07
2018-10-06T20:29:21.591Z,7.30
2018-10-06T20:31:50.159Z,10.17
2018-10-06T20:34:18.703Z,7.10
2018-10-06T20:36:47.276Z,5.93
2018-10-06T20:39:15.807Z,6.00
2018-10-06T20:41:44.368Z,5.90
2018-10-06T20:44:12.936Z,5.83
2018-10-06T20:46:41.506Z,4.47
2018-10-06T20:49:10.484Z,5.40
2018-10-06T20:51:41.975Z,6.37
2018-10-06T20:54:10.545Z,6.07
2018-10-06T20:56:39.111Z,7.43
2018-10-06T20:59:07.679Z,6.63
2018-10-06T21:01:36.237Z,6.23
2018-10-06T21:04:04.850Z,6.30
2018-10-06T21:06:33.441Z,6.20
2018-10-06T21:09:02.089Z,11.13
2018-10-06T21:11:30.647Z,5.37
2018-10-06T21:13:59.493Z,5.77
2018-10-06T21:16:28.068Z,5.00
2018-10-06T21:18:56.620Z,7.07
2018-10-06T21:21:25.160Z,9.33
2018-10-06T21:23:53.759Z,8.80
2018-10-06T21:26:22.383Z,8.00
2018-10-06T21:28:51.057Z,5.10
2018-10-06T21:31:19.643Z,5.40
2018-10-06T21:33:48.173Z,8.40
2018-10-06T21:36:16.725Z,9.03
2018-10-06T21:38:45.332Z,7.60
2018-10-06T21:41:13.845Z,6.03
2018-10-06T21:43:42.416Z,8.27
2018-10-06T21:46:10.951Z,7.73
2018-10-06T21:48:39.516Z,5.97
2018-10-06T21:51:08.100Z,8.20
2018-10-06T21:53:36.668Z,6.40
2018-10-06T21:56:05.212Z,6.73
2018-10-06T21:58:33.794Z,4.93
2018-10-06T22:01:07.536Z,7.70
2018-10-06T22:03:36.114Z,7.70
2018-10-06T22:06:04.737Z,5.77
2018-10-06T22:08:33.328Z,7.17
2018-10-06T22:11:01.869Z,4.83
2018-10-06T22:13:30.445Z,6.70
2018-10-06T22:15:59.053Z,8.47
2018-10-06T22:18:27.873Z,5.67
2018-10-06T22:20:56.748Z,5.50
2018-10-06T22:23:25.673Z,8.83
2018-10-06T22:25:54.298Z,7.20
2018-10-06T22:28:22.868Z,8.80
2018-10-06T22:30:51.404Z,12.20
2018-10-06T22:33:20.013Z,7.63
2018-10-06T22:35:48.572Z,9.00
2018-10-06T22:38:17.128Z,6.37
2018-10-06T22:40:45.684Z,6.67
2018-10-06T22:43:14.239Z,6.87
2018-10-06T22:45:42.788Z,7.90
2018-10-06T22:48:11.406Z,7.50
2018-10-06T22:50:40.061Z,7.83
2018-10-06T22:53:08.628Z,7.30
2018-10-06T22:55:37.232Z,5.80
2018-10-06T22:58:05.794Z,6.63
2018-10-06T23:00:34.364Z,5.60
2018-10-06T23:03:02.949Z,5.67
2018-10-06T23:05:31.492Z,7.33
2018-10-06T23:08:00.048Z,6.73
2018-10-06T23:10:28.632Z,6.87
2018-10-06T23:12:57.180Z,11.00
2018-10-06T23:15:25.779Z,10.53
2018-10-06T23:17:54.328Z,6.20
2018-10-06T23:20:22.914Z,7.80
2018-10-06T23:22:51.449Z,7.03
2018-10-06T23:25:20.020Z,8.40
2018-10-06T23:27:48.563Z,6.40
2018-10-06T23:30:17.116Z,8.20
2018-10-06T23:32:45.653Z,8.73
2018-10-06T23:35:14.207Z,6.33
2018-10-06T23:37:42.765Z,8.70
2018-10-06T23:40:11.327Z,7.53
2018-10-06T23:42:39.872Z,5.87
2018-10-06T23:45:08.604Z,5.17
2018-10-06T23:47:37.195Z,6.20
2018-10-06T23:50:05.842Z,8.13
2018-10-06T23:52:34.388Z,6.87
2018-10-06T23:55:02.979Z,8.47
2018-10-06T23:57:31.508Z,6.17
